RXI401 OERK-OEJN
Flight info
| Callsign | RXI401 |
|---|---|
| Flight time | 1h 37m |
| Altitude | 32000 |
| Route | UMASU M309 VEMEM |
| Aircraft | B78X/H-SDE1E2E3FGHIJ2J3J4J5M1RWXY/LB1D1 |
Departure
| Time | 2026-05-07 23:16 |
|---|---|
| Airport | King Khalid International Airport (OERK) |
Arrival
| Time | 2026-05-08 00:53 |
|---|---|
| Airport | King Abdulaziz International Airport (OEJN) |
| Time | Latitude | Longitude | Altitude | Speed | Heading |
|---|---|---|---|---|---|
| 2026-05-07 23:15 | 24.98032 | 46.72067 | 6415 ft | 231 kts | 311° |
| 2026-05-07 23:16 | 24.99028 | 46.70744 | 6640 ft | 222 kts | 308° |
| 2026-05-07 23:16 | 25.00076 | 46.69530 | 6959 ft | 221 kts | 321° |
| 2026-05-07 23:16 | 25.01374 | 46.68671 | 7289 ft | 215 kts | 337° |
| 2026-05-07 23:16 | 25.02808 | 46.68057 | 7534 ft | 228 kts | 338° |
| 2026-05-07 23:17 | 25.04313 | 46.67483 | 7882 ft | 227 kts | 343° |
| 2026-05-07 23:17 | 25.05812 | 46.66924 | 8291 ft | 234 kts | 340° |
| 2026-05-07 23:17 | 25.07357 | 46.66301 | 8942 ft | 230 kts | 335° |
| 2026-05-07 23:17 | 25.08515 | 46.65267 | 9477 ft | 212 kts | 303° |
| 2026-05-07 23:18 | 25.09212 | 46.63693 | 8968 ft | 249 kts | 275° |
| 2026-05-07 23:18 | 25.09197 | 46.61753 | 9102 ft | 257 kts | 256° |
| 2026-05-07 23:18 | 25.08655 | 46.59895 | 9590 ft | 248 kts | 247° |
| 2026-05-07 23:18 | 25.08100 | 46.58103 | 9912 ft | 255 kts | 252° |
| 2026-05-07 23:19 | 25.07764 | 46.56120 | 10046 ft | 269 kts | 257° |
| 2026-05-07 23:19 | 25.07047 | 46.54230 | 10204 ft | 272 kts | 231° |
| 2026-05-07 23:19 | 25.05820 | 46.52611 | 10404 ft | 278 kts | 226° |
| 2026-05-07 23:19 | 25.04505 | 46.51010 | 10699 ft | 283 kts | 227° |
| 2026-05-07 23:20 | 25.03222 | 46.49341 | 11019 ft | 286 kts | 229° |
| 2026-05-07 23:20 | 25.01952 | 46.47637 | 11357 ft | 288 kts | 229° |
| 2026-05-07 23:20 | 25.00667 | 46.45936 | 11698 ft | 290 kts | 228° |
| 2026-05-07 23:20 | 24.99360 | 46.44226 | 12043 ft | 292 kts | 228° |
| 2026-05-07 23:21 | 24.98047 | 46.42506 | 12386 ft | 294 kts | 229° |
| 2026-05-07 23:21 | 24.96748 | 46.40797 | 12722 ft | 295 kts | 229° |
| 2026-05-07 23:21 | 24.95423 | 46.39057 | 13075 ft | 297 kts | 229° |
| 2026-05-07 23:21 | 24.94095 | 46.37313 | 13421 ft | 298 kts | 228° |
| 2026-05-07 23:22 | 24.92716 | 46.35506 | 13506 ft | 321 kts | 229° |
| 2026-05-07 23:22 | 24.91200 | 46.33521 | 13680 ft | 355 kts | 229° |
| 2026-05-07 23:22 | 24.89561 | 46.31370 | 14332 ft | 371 kts | 229° |
| 2026-05-07 23:22 | 24.87887 | 46.29171 | 15323 ft | 376 kts | 229° |
| 2026-05-07 23:23 | 24.86194 | 46.26955 | 16354 ft | 379 kts | 229° |
| 2026-05-07 23:23 | 24.84506 | 46.24746 | 17373 ft | 382 kts | 229° |
| 2026-05-07 23:23 | 24.82787 | 46.22498 | 18375 ft | 386 kts | 229° |
| 2026-05-07 23:23 | 24.81042 | 46.20214 | 19190 ft | 390 kts | 229° |
| 2026-05-07 23:24 | 24.79281 | 46.17911 | 20000 ft | 395 kts | 230° |
| 2026-05-07 23:24 | 24.77496 | 46.15578 | 20787 ft | 399 kts | 230° |
| 2026-05-07 23:24 | 24.75716 | 46.13254 | 21552 ft | 404 kts | 230° |
| 2026-05-07 23:24 | 24.73891 | 46.10871 | 22298 ft | 409 kts | 230° |
| 2026-05-07 23:25 | 24.72050 | 46.08469 | 23019 ft | 414 kts | 231° |
| 2026-05-07 23:25 | 24.70180 | 46.06030 | 23696 ft | 418 kts | 231° |
| 2026-05-07 23:25 | 24.68294 | 46.03571 | 24282 ft | 422 kts | 231° |
| 2026-05-07 23:25 | 24.66612 | 46.00915 | 24877 ft | 425 kts | 239° |
| 2026-05-07 23:26 | 24.65079 | 45.98126 | 25453 ft | 428 kts | 239° |
| 2026-05-07 23:26 | 24.63536 | 45.95306 | 26048 ft | 431 kts | 239° |
| 2026-05-07 23:26 | 24.61993 | 45.92471 | 26629 ft | 434 kts | 239° |
| 2026-05-07 23:26 | 24.60454 | 45.89654 | 27198 ft | 437 kts | 238° |
| 2026-05-07 23:27 | 24.57299 | 45.83900 | 28331 ft | 442 kts | 238° |
| 2026-05-07 23:27 | 24.55715 | 45.81007 | 29102 ft | 439 kts | 238° |
| 2026-05-07 23:27 | 24.54149 | 45.78149 | 29958 ft | 434 kts | 238° |
| 2026-05-07 23:28 | 24.52595 | 45.75318 | 30724 ft | 429 kts | 238° |
| 2026-05-07 23:28 | 24.51059 | 45.72522 | 31469 ft | 425 kts | 237° |
| 2026-05-07 23:28 | 24.49538 | 45.69753 | 31919 ft | 424 kts | 237° |
| 2026-05-07 23:28 | 24.48006 | 45.66968 | 32016 ft | 428 kts | 237° |
| 2026-05-07 23:29 | 24.44967 | 45.61467 | 32024 ft | 423 kts | 235° |
| 2026-05-07 23:29 | 24.41801 | 45.56003 | 32012 ft | 424 kts | 236° |
| 2026-05-07 23:30 | 24.38646 | 45.50546 | 32015 ft | 423 kts | 236° |
| 2026-05-07 23:30 | 24.36018 | 45.46021 | 32017 ft | 423 kts | 236° |
| 2026-05-07 23:31 | 24.32859 | 45.40571 | 32017 ft | 423 kts | 236° |
| 2026-05-07 23:31 | 24.29698 | 45.35133 | 32019 ft | 422 kts | 236° |
| 2026-05-07 23:32 | 24.26539 | 45.29698 | 32019 ft | 422 kts | 236° |
| 2026-05-07 23:32 | 24.23380 | 45.24274 | 32023 ft | 422 kts | 236° |
| 2026-05-07 23:33 | 24.20239 | 45.18886 | 32025 ft | 422 kts | 236° |
| 2026-05-07 23:33 | 24.17079 | 45.13469 | 32028 ft | 421 kts | 236° |
| 2026-05-07 23:34 | 24.14376 | 45.07769 | 32043 ft | 422 kts | 242° |
| 2026-05-07 23:34 | 24.11789 | 45.02024 | 32048 ft | 422 kts | 242° |
| 2026-05-07 23:35 | 24.09201 | 44.96253 | 32030 ft | 422 kts | 242° |
| 2026-05-07 23:35 | 24.06609 | 44.90495 | 32040 ft | 421 kts | 242° |
| 2026-05-07 23:36 | 24.04016 | 44.84737 | 32040 ft | 421 kts | 242° |
| 2026-05-07 23:36 | 24.01427 | 44.78995 | 32038 ft | 421 kts | 242° |
| 2026-05-07 23:37 | 23.98845 | 44.73276 | 32040 ft | 421 kts | 242° |
| 2026-05-07 23:37 | 23.96252 | 44.67541 | 32041 ft | 421 kts | 242° |
| 2026-05-07 23:38 | 23.93656 | 44.61805 | 32039 ft | 420 kts | 242° |
| 2026-05-07 23:38 | 23.91379 | 44.55906 | 32049 ft | 422 kts | 246° |
| 2026-05-07 23:39 | 23.89255 | 44.49928 | 32047 ft | 421 kts | 246° |
| 2026-05-07 23:39 | 23.87169 | 44.43979 | 32041 ft | 421 kts | 246° |
| 2026-05-07 23:40 | 23.85055 | 44.37998 | 32036 ft | 421 kts | 246° |
| 2026-05-07 23:40 | 23.82947 | 44.32026 | 32039 ft | 421 kts | 246° |
| 2026-05-07 23:41 | 23.80836 | 44.26061 | 32028 ft | 421 kts | 246° |
| 2026-05-07 23:41 | 23.78720 | 44.20089 | 32026 ft | 421 kts | 246° |
| 2026-05-07 23:42 | 23.76605 | 44.14127 | 32024 ft | 421 kts | 246° |
| 2026-05-07 23:42 | 23.74501 | 44.08205 | 32014 ft | 421 kts | 246° |
| 2026-05-07 23:43 | 23.72379 | 44.02240 | 32012 ft | 421 kts | 246° |
| 2026-05-07 23:43 | 23.70260 | 43.96292 | 32012 ft | 420 kts | 246° |
| 2026-05-07 23:44 | 23.68136 | 43.90342 | 32014 ft | 420 kts | 246° |
| 2026-05-07 23:44 | 23.66009 | 43.84386 | 32012 ft | 420 kts | 246° |
| 2026-05-07 23:45 | 23.63892 | 43.78470 | 32015 ft | 420 kts | 246° |
| 2026-05-07 23:45 | 23.61767 | 43.72539 | 32013 ft | 420 kts | 246° |
| 2026-05-07 23:46 | 23.59637 | 43.66603 | 32015 ft | 420 kts | 245° |
| 2026-05-07 23:46 | 23.57521 | 43.60713 | 32015 ft | 419 kts | 245° |
| 2026-05-07 23:47 | 23.55392 | 43.54794 | 32021 ft | 418 kts | 245° |
| 2026-05-07 23:47 | 23.53258 | 43.48871 | 32019 ft | 419 kts | 245° |
| 2026-05-07 23:48 | 23.51141 | 43.43002 | 32025 ft | 418 kts | 245° |
| 2026-05-07 23:48 | 23.49010 | 43.37103 | 32026 ft | 417 kts | 245° |
| 2026-05-07 23:49 | 23.46881 | 43.31220 | 32028 ft | 417 kts | 245° |
| 2026-05-07 23:49 | 23.44756 | 43.25352 | 32032 ft | 416 kts | 245° |
| 2026-05-07 23:50 | 23.42641 | 43.19522 | 32033 ft | 416 kts | 245° |
| 2026-05-07 23:50 | 23.40507 | 43.13647 | 32034 ft | 416 kts | 245° |
| 2026-05-07 23:51 | 23.38378 | 43.07787 | 32029 ft | 415 kts | 245° |
| 2026-05-07 23:51 | 23.36260 | 43.01970 | 32034 ft | 415 kts | 245° |
| 2026-05-07 23:52 | 23.34132 | 42.96128 | 32034 ft | 415 kts | 245° |
| 2026-05-07 23:52 | 23.32004 | 42.90299 | 32034 ft | 415 kts | 245° |
| 2026-05-07 23:53 | 23.29818 | 42.84326 | 32032 ft | 436 kts | 245° |
| 2026-05-07 23:53 | 23.27546 | 42.78105 | 32035 ft | 443 kts | 245° |
| 2026-05-07 23:54 | 23.25263 | 42.71878 | 32036 ft | 443 kts | 245° |
| 2026-05-07 23:54 | 23.22990 | 42.65683 | 32021 ft | 444 kts | 245° |
| 2026-05-07 23:55 | 23.20699 | 42.59448 | 32016 ft | 444 kts | 245° |
| 2026-05-07 23:55 | 23.18405 | 42.53216 | 32020 ft | 443 kts | 245° |
| 2026-05-07 23:56 | 23.16109 | 42.46985 | 32019 ft | 443 kts | 245° |
| 2026-05-07 23:56 | 23.13813 | 42.40765 | 32024 ft | 443 kts | 245° |
| 2026-05-07 23:57 | 23.11534 | 42.34586 | 32025 ft | 443 kts | 245° |
| 2026-05-07 23:57 | 23.09333 | 42.28337 | 32025 ft | 443 kts | 246° |
| 2026-05-07 23:58 | 23.07094 | 42.22095 | 32026 ft | 443 kts | 245° |
| 2026-05-07 23:58 | 23.04862 | 42.15843 | 32026 ft | 443 kts | 246° |
| 2026-05-07 23:59 | 23.02647 | 42.09658 | 32030 ft | 442 kts | 245° |
| 2026-05-07 23:59 | 23.00417 | 42.03438 | 32030 ft | 441 kts | 245° |
| 2026-05-08 00:00 | 22.98182 | 41.97240 | 32027 ft | 436 kts | 245° |
| 2026-05-08 00:00 | 22.97078 | 41.94252 | 32012 ft | 418 kts | 245° |
| 2026-05-08 00:00 | 22.96036 | 41.91364 | 32008 ft | 407 kts | 245° |
| 2026-05-08 00:01 | 22.93966 | 41.85584 | 32014 ft | 410 kts | 245° |
| 2026-05-08 00:01 | 22.91881 | 41.79820 | 32022 ft | 411 kts | 245° |
| 2026-05-08 00:02 | 22.89798 | 41.74044 | 32022 ft | 411 kts | 245° |
| 2026-05-08 00:02 | 22.87704 | 41.68256 | 32021 ft | 411 kts | 245° |
| 2026-05-08 00:03 | 22.85617 | 41.62489 | 32025 ft | 411 kts | 245° |
| 2026-05-08 00:03 | 22.83526 | 41.56723 | 32026 ft | 411 kts | 245° |
| 2026-05-08 00:04 | 22.81446 | 41.50992 | 32029 ft | 411 kts | 245° |
| 2026-05-08 00:04 | 22.79350 | 41.45225 | 32028 ft | 410 kts | 245° |
| 2026-05-08 00:05 | 22.77253 | 41.39464 | 32034 ft | 410 kts | 245° |
| 2026-05-08 00:05 | 22.75194 | 41.33809 | 31848 ft | 396 kts | 245° |
| 2026-05-08 00:06 | 22.73219 | 41.28397 | 31709 ft | 376 kts | 245° |
| 2026-05-08 00:06 | 22.71336 | 41.23243 | 31557 ft | 360 kts | 245° |
| 2026-05-08 00:07 | 22.70417 | 41.20731 | 31388 ft | 356 kts | 245° |
| 2026-05-08 00:07 | 22.69494 | 41.18260 | 31165 ft | 352 kts | 243° |
| 2026-05-08 00:07 | 22.68424 | 41.15881 | 30903 ft | 350 kts | 241° |
| 2026-05-08 00:07 | 22.67318 | 41.13534 | 30617 ft | 350 kts | 242° |
| 2026-05-08 00:08 | 22.66285 | 41.11179 | 30310 ft | 351 kts | 243° |
| 2026-05-08 00:08 | 22.65261 | 41.08774 | 29991 ft | 351 kts | 243° |
| 2026-05-08 00:08 | 22.64214 | 41.06378 | 29599 ft | 352 kts | 243° |
| 2026-05-08 00:08 | 22.63153 | 41.03985 | 29211 ft | 353 kts | 243° |
| 2026-05-08 00:09 | 22.62087 | 41.01568 | 28817 ft | 355 kts | 243° |
| 2026-05-08 00:09 | 22.61025 | 40.99143 | 28427 ft | 356 kts | 243° |
| 2026-05-08 00:09 | 22.59972 | 40.96743 | 28019 ft | 358 kts | 243° |
| 2026-05-08 00:09 | 22.58896 | 40.94301 | 27599 ft | 360 kts | 243° |
| 2026-05-08 00:10 | 22.57815 | 40.91846 | 27201 ft | 362 kts | 243° |
| 2026-05-08 00:10 | 22.56731 | 40.89384 | 26796 ft | 363 kts | 244° |
| 2026-05-08 00:10 | 22.55640 | 40.86907 | 26384 ft | 365 kts | 244° |
| 2026-05-08 00:10 | 22.54541 | 40.84413 | 25968 ft | 368 kts | 244° |
| 2026-05-08 00:11 | 22.53435 | 40.81907 | 25540 ft | 370 kts | 244° |
| 2026-05-08 00:11 | 22.52325 | 40.79392 | 25122 ft | 372 kts | 244° |
| 2026-05-08 00:11 | 22.51209 | 40.76863 | 24694 ft | 374 kts | 244° |
| 2026-05-08 00:11 | 22.50083 | 40.74314 | 24260 ft | 376 kts | 244° |
| 2026-05-08 00:12 | 22.48950 | 40.71750 | 23845 ft | 379 kts | 244° |
| 2026-05-08 00:12 | 22.47824 | 40.69203 | 23370 ft | 381 kts | 244° |
| 2026-05-08 00:12 | 22.46676 | 40.66607 | 22837 ft | 383 kts | 244° |
| 2026-05-08 00:12 | 22.45523 | 40.64003 | 22314 ft | 385 kts | 244° |
| 2026-05-08 00:13 | 22.44360 | 40.61377 | 21777 ft | 388 kts | 243° |
| 2026-05-08 00:13 | 22.43188 | 40.58733 | 21247 ft | 390 kts | 243° |
| 2026-05-08 00:13 | 22.42012 | 40.56079 | 20710 ft | 392 kts | 243° |
| 2026-05-08 00:13 | 22.40829 | 40.53412 | 20161 ft | 395 kts | 243° |
| 2026-05-08 00:14 | 22.39642 | 40.50737 | 19802 ft | 390 kts | 242° |
| 2026-05-08 00:14 | 22.38468 | 40.48093 | 19580 ft | 392 kts | 242° |
| 2026-05-08 00:14 | 22.37286 | 40.45435 | 19355 ft | 391 kts | 242° |
| 2026-05-08 00:14 | 22.36120 | 40.42813 | 19137 ft | 393 kts | 242° |
| 2026-05-08 00:15 | 22.34932 | 40.40140 | 18920 ft | 394 kts | 242° |
| 2026-05-08 00:15 | 22.33741 | 40.37465 | 18703 ft | 395 kts | 242° |
| 2026-05-08 00:15 | 22.32553 | 40.34797 | 18476 ft | 397 kts | 242° |
| 2026-05-08 00:15 | 22.31352 | 40.32099 | 18248 ft | 397 kts | 242° |
| 2026-05-08 00:16 | 22.30152 | 40.29411 | 18033 ft | 398 kts | 242° |
| 2026-05-08 00:16 | 22.29350 | 40.27613 | 17913 ft | 400 kts | 242° |
| 2026-05-08 00:16 | 22.28145 | 40.24909 | 17738 ft | 400 kts | 242° |
| 2026-05-08 00:16 | 22.26545 | 40.21326 | 17489 ft | 400 kts | 242° |
| 2026-05-08 00:17 | 22.25332 | 40.18612 | 17324 ft | 402 kts | 242° |
| 2026-05-08 00:17 | 22.24118 | 40.15895 | 17135 ft | 403 kts | 242° |
| 2026-05-08 00:17 | 22.22901 | 40.13173 | 16961 ft | 403 kts | 242° |
| 2026-05-08 00:17 | 22.22089 | 40.11359 | 16849 ft | 404 kts | 242° |
| 2026-05-08 00:18 | 22.20868 | 40.08631 | 16669 ft | 405 kts | 242° |
| 2026-05-08 00:18 | 22.19641 | 40.05891 | 16495 ft | 404 kts | 242° |
| 2026-05-08 00:18 | 22.18411 | 40.03148 | 16315 ft | 405 kts | 242° |
| 2026-05-08 00:18 | 22.17179 | 40.00397 | 16143 ft | 408 kts | 242° |
| 2026-05-08 00:19 | 22.15949 | 39.97654 | 15964 ft | 406 kts | 242° |
| 2026-05-08 00:19 | 22.14712 | 39.94900 | 15808 ft | 409 kts | 242° |
| 2026-05-08 00:19 | 22.13475 | 39.92146 | 15611 ft | 407 kts | 242° |
| 2026-05-08 00:19 | 22.12248 | 39.89415 | 15452 ft | 409 kts | 242° |
| 2026-05-08 00:20 | 22.11008 | 39.86656 | 15283 ft | 410 kts | 243° |
| 2026-05-08 00:20 | 22.09764 | 39.83891 | 15083 ft | 406 kts | 242° |
| 2026-05-08 00:20 | 22.08556 | 39.81203 | 14431 ft | 391 kts | 243° |
| 2026-05-08 00:20 | 22.07395 | 39.78624 | 14026 ft | 374 kts | 243° |
| 2026-05-08 00:21 | 22.06284 | 39.76158 | 13812 ft | 357 kts | 243° |
| 2026-05-08 00:21 | 22.05222 | 39.73804 | 13666 ft | 341 kts | 243° |
| 2026-05-08 00:21 | 22.04206 | 39.71550 | 13556 ft | 327 kts | 243° |
| 2026-05-08 00:21 | 22.03229 | 39.69386 | 13465 ft | 316 kts | 243° |
| 2026-05-08 00:22 | 22.02284 | 39.67293 | 13382 ft | 307 kts | 242° |
| 2026-05-08 00:22 | 22.01361 | 39.65248 | 13296 ft | 299 kts | 243° |
| 2026-05-08 00:22 | 22.00462 | 39.63260 | 13241 ft | 292 kts | 242° |
| 2026-05-08 00:22 | 21.99590 | 39.61330 | 13177 ft | 287 kts | 242° |
| 2026-05-08 00:23 | 21.98724 | 39.59412 | 13080 ft | 283 kts | 242° |
| 2026-05-08 00:23 | 21.97877 | 39.57540 | 13108 ft | 273 kts | 242° |
| 2026-05-08 00:23 | 21.97042 | 39.55695 | 13097 ft | 273 kts | 242° |
| 2026-05-08 00:23 | 21.96212 | 39.53861 | 13085 ft | 271 kts | 242° |
| 2026-05-08 00:24 | 21.95415 | 39.52097 | 13075 ft | 251 kts | 242° |
| 2026-05-08 00:24 | 21.94680 | 39.50473 | 13056 ft | 236 kts | 242° |
| 2026-05-08 00:24 | 21.93958 | 39.48882 | 13060 ft | 236 kts | 242° |
| 2026-05-08 00:24 | 21.93252 | 39.47291 | 13055 ft | 235 kts | 243° |
| 2026-05-08 00:25 | 21.92546 | 39.45698 | 13049 ft | 235 kts | 243° |
| 2026-05-08 00:25 | 21.91839 | 39.44111 | 13051 ft | 234 kts | 242° |
| 2026-05-08 00:25 | 21.91150 | 39.42564 | 12871 ft | 229 kts | 242° |
| 2026-05-08 00:25 | 21.90458 | 39.41013 | 12354 ft | 231 kts | 243° |
| 2026-05-08 00:26 | 21.89761 | 39.39451 | 11844 ft | 232 kts | 243° |
| 2026-05-08 00:26 | 21.89058 | 39.37875 | 11390 ft | 233 kts | 243° |
| 2026-05-08 00:26 | 21.88354 | 39.36297 | 10934 ft | 233 kts | 243° |
| 2026-05-08 00:26 | 21.87648 | 39.34713 | 10477 ft | 234 kts | 243° |
| 2026-05-08 00:27 | 21.86945 | 39.33140 | 10046 ft | 233 kts | 243° |
| 2026-05-08 00:27 | 21.86243 | 39.31568 | 9602 ft | 233 kts | 244° |
| 2026-05-08 00:27 | 21.85541 | 39.29994 | 9158 ft | 232 kts | 244° |
| 2026-05-08 00:27 | 21.84843 | 39.28433 | 9011 ft | 231 kts | 244° |
| 2026-05-08 00:28 | 21.84142 | 39.26864 | 9012 ft | 233 kts | 244° |
| 2026-05-08 00:28 | 21.83446 | 39.25309 | 9009 ft | 233 kts | 244° |
| 2026-05-08 00:28 | 21.82749 | 39.23748 | 8895 ft | 230 kts | 244° |
| 2026-05-08 00:28 | 21.82051 | 39.22195 | 8625 ft | 230 kts | 242° |
| 2026-05-08 00:29 | 21.81094 | 39.20840 | 8374 ft | 228 kts | 225° |
| 2026-05-08 00:29 | 21.80043 | 39.19549 | 8114 ft | 229 kts | 230° |
| 2026-05-08 00:29 | 21.79012 | 39.18239 | 7878 ft | 228 kts | 229° |
| 2026-05-08 00:29 | 21.77969 | 39.16951 | 7675 ft | 228 kts | 228° |
| 2026-05-08 00:30 | 21.76937 | 39.15687 | 7465 ft | 227 kts | 228° |
| 2026-05-08 00:30 | 21.75897 | 39.14406 | 7274 ft | 227 kts | 228° |
| 2026-05-08 00:30 | 21.74851 | 39.13118 | 7140 ft | 223 kts | 229° |
| 2026-05-08 00:30 | 21.73863 | 39.11902 | 7094 ft | 215 kts | 228° |
| 2026-05-08 00:31 | 21.72886 | 39.10700 | 6997 ft | 211 kts | 228° |
| 2026-05-08 00:31 | 21.71923 | 39.09516 | 6888 ft | 209 kts | 228° |
| 2026-05-08 00:31 | 21.70971 | 39.08342 | 6791 ft | 207 kts | 228° |
| 2026-05-08 00:31 | 21.70020 | 39.07175 | 6644 ft | 206 kts | 228° |
| 2026-05-08 00:32 | 21.69089 | 39.06031 | 6511 ft | 205 kts | 229° |
| 2026-05-08 00:32 | 21.68150 | 39.04876 | 6367 ft | 204 kts | 228° |
| 2026-05-08 00:32 | 21.67190 | 39.03747 | 6219 ft | 203 kts | 219° |
| 2026-05-08 00:32 | 21.65906 | 39.03223 | 6076 ft | 200 kts | 184° |
| 2026-05-08 00:33 | 21.64570 | 39.03545 | 5924 ft | 198 kts | 156° |
| 2026-05-08 00:33 | 21.63264 | 39.04052 | 5724 ft | 200 kts | 162° |
| 2026-05-08 00:33 | 21.61944 | 39.04541 | 5542 ft | 201 kts | 161° |
| 2026-05-08 00:33 | 21.60625 | 39.05056 | 5355 ft | 202 kts | 160° |
| 2026-05-08 00:34 | 21.59299 | 39.05580 | 5152 ft | 204 kts | 161° |
| 2026-05-08 00:34 | 21.57962 | 39.06104 | 5001 ft | 205 kts | 161° |
| 2026-05-08 00:34 | 21.56614 | 39.06635 | 5007 ft | 210 kts | 161° |
| 2026-05-08 00:34 | 21.55262 | 39.07165 | 5003 ft | 206 kts | 161° |
| 2026-05-08 00:35 | 21.53920 | 39.07691 | 5007 ft | 208 kts | 160° |
| 2026-05-08 00:35 | 21.52561 | 39.08224 | 5005 ft | 208 kts | 160° |
| 2026-05-08 00:35 | 21.51197 | 39.08760 | 4997 ft | 208 kts | 160° |
| 2026-05-08 00:35 | 21.49844 | 39.09297 | 4998 ft | 202 kts | 160° |
| 2026-05-08 00:36 | 21.48544 | 39.09813 | 4986 ft | 199 kts | 160° |
| 2026-05-08 00:36 | 21.47253 | 39.10323 | 4982 ft | 196 kts | 160° |
| 2026-05-08 00:36 | 21.45987 | 39.10826 | 4766 ft | 194 kts | 161° |
| 2026-05-08 00:36 | 21.44725 | 39.11322 | 4489 ft | 196 kts | 160° |
| 2026-05-08 00:37 | 21.43435 | 39.11833 | 4221 ft | 198 kts | 160° |
| 2026-05-08 00:37 | 21.42136 | 39.12347 | 3972 ft | 199 kts | 160° |
| 2026-05-08 00:37 | 21.40834 | 39.12862 | 3721 ft | 200 kts | 159° |
| 2026-05-08 00:38 | 21.38206 | 39.13901 | 3239 ft | 201 kts | 159° |
| 2026-05-08 00:38 | 21.36899 | 39.14418 | 3109 ft | 200 kts | 158° |
| 2026-05-08 00:38 | 21.35590 | 39.14936 | 3125 ft | 200 kts | 159° |
| 2026-05-08 00:38 | 21.34270 | 39.15456 | 3109 ft | 204 kts | 158° |
| 2026-05-08 00:39 | 21.32963 | 39.15974 | 3136 ft | 199 kts | 158° |
| 2026-05-08 00:39 | 21.31683 | 39.16475 | 3027 ft | 197 kts | 158° |
| 2026-05-08 00:39 | 21.30401 | 39.16980 | 2806 ft | 196 kts | 157° |
| 2026-05-08 00:39 | 21.29125 | 39.17490 | 2704 ft | 195 kts | 157° |
| 2026-05-08 00:40 | 21.27847 | 39.17992 | 2706 ft | 194 kts | 158° |
| 2026-05-08 00:40 | 21.26564 | 39.18498 | 2711 ft | 196 kts | 157° |
| 2026-05-08 00:40 | 21.25306 | 39.19044 | 2698 ft | 194 kts | 145° |
| 2026-05-08 00:40 | 21.24530 | 39.20097 | 2721 ft | 177 kts | 105° |
| 2026-05-08 00:41 | 21.24452 | 39.21363 | 2707 ft | 163 kts | 69° |
| 2026-05-08 00:41 | 21.24839 | 39.22546 | 2719 ft | 169 kts | 64° |
| 2026-05-08 00:41 | 21.25225 | 39.23686 | 2741 ft | 167 kts | 62° |
| 2026-05-08 00:41 | 21.25627 | 39.24847 | 2740 ft | 165 kts | 63° |
| 2026-05-08 00:42 | 21.26019 | 39.25986 | 2721 ft | 164 kts | 63° |
| 2026-05-08 00:42 | 21.26423 | 39.27156 | 2715 ft | 160 kts | 63° |
| 2026-05-08 00:42 | 21.26874 | 39.28276 | 2710 ft | 164 kts | 47° |
| 2026-05-08 00:42 | 21.27744 | 39.28943 | 2730 ft | 159 kts | 19° |
| 2026-05-08 00:43 | 21.28785 | 39.29018 | 2720 ft | 155 kts | 349° |
| 2026-05-08 00:43 | 21.29838 | 39.28667 | 2712 ft | 153 kts | 345° |
| 2026-05-08 00:43 | 21.30917 | 39.28284 | 2725 ft | 173 kts | 342° |
| 2026-05-08 00:43 | 21.32048 | 39.27837 | 2748 ft | 179 kts | 342° |
| 2026-05-08 00:44 | 21.33194 | 39.27382 | 2723 ft | 177 kts | 342° |
| 2026-05-08 00:44 | 21.34350 | 39.26924 | 2720 ft | 173 kts | 341° |
| 2026-05-08 00:44 | 21.35423 | 39.26497 | 2715 ft | 160 kts | 341° |
| 2026-05-08 00:44 | 21.36470 | 39.26082 | 2711 ft | 158 kts | 341° |
| 2026-05-08 00:45 | 21.37517 | 39.25665 | 2712 ft | 159 kts | 341° |
| 2026-05-08 00:45 | 21.38562 | 39.25252 | 2711 ft | 160 kts | 341° |
| 2026-05-08 00:45 | 21.39609 | 39.24837 | 2705 ft | 159 kts | 341° |
| 2026-05-08 00:45 | 21.40638 | 39.24431 | 2707 ft | 162 kts | 341° |
| 2026-05-08 00:46 | 21.41696 | 39.24009 | 2697 ft | 160 kts | 342° |
| 2026-05-08 00:46 | 21.42752 | 39.23589 | 2718 ft | 161 kts | 341° |
| 2026-05-08 00:46 | 21.43807 | 39.23176 | 2707 ft | 160 kts | 342° |
| 2026-05-08 00:46 | 21.44853 | 39.22760 | 2698 ft | 159 kts | 343° |
| 2026-05-08 00:47 | 21.45881 | 39.22352 | 2700 ft | 156 kts | 342° |
| 2026-05-08 00:47 | 21.46918 | 39.21943 | 2709 ft | 157 kts | 342° |
| 2026-05-08 00:47 | 21.47943 | 39.21536 | 2706 ft | 159 kts | 342° |
| 2026-05-08 00:47 | 21.48967 | 39.21136 | 2691 ft | 157 kts | 343° |
| 2026-05-08 00:48 | 21.50023 | 39.20719 | 2694 ft | 161 kts | 342° |
| 2026-05-08 00:48 | 21.51060 | 39.20307 | 2702 ft | 161 kts | 342° |
| 2026-05-08 00:48 | 21.52108 | 39.19888 | 2690 ft | 160 kts | 342° |
| 2026-05-08 00:48 | 21.53100 | 39.19494 | 2679 ft | 144 kts | 343° |
| 2026-05-08 00:49 | 21.54044 | 39.19131 | 2618 ft | 141 kts | 342° |
| 2026-05-08 00:49 | 21.54953 | 39.18767 | 2429 ft | 139 kts | 342° |
| 2026-05-08 00:49 | 21.55860 | 39.18406 | 2261 ft | 139 kts | 343° |
| 2026-05-08 00:49 | 21.56761 | 39.18048 | 2087 ft | 137 kts | 343° |
| 2026-05-08 00:50 | 21.57660 | 39.17691 | 1914 ft | 137 kts | 343° |
| 2026-05-08 00:50 | 21.58537 | 39.17344 | 1733 ft | 136 kts | 343° |
| 2026-05-08 00:50 | 21.59424 | 39.16982 | 1526 ft | 136 kts | 342° |
| 2026-05-08 00:50 | 21.60289 | 39.16582 | 1375 ft | 135 kts | 340° |
| 2026-05-08 00:51 | 21.61172 | 39.16225 | 1182 ft | 138 kts | 343° |
| 2026-05-08 00:51 | 21.62098 | 39.15863 | 975 ft | 138 kts | 342° |
| 2026-05-08 00:51 | 21.63047 | 39.15516 | 857 ft | 150 kts | 342° |
| 2026-05-08 00:51 | 21.63997 | 39.15141 | 694 ft | 145 kts | 340° |
| 2026-05-08 00:52 | 21.64923 | 39.14789 | 455 ft | 143 kts | 340° |
| 2026-05-08 00:52 | 21.65843 | 39.14429 | 312 ft | 143 kts | 340° |
| 2026-05-08 00:52 | 21.66785 | 39.14061 | 139 ft | 147 kts | 339° |
| 2026-05-08 00:52 | 21.67667 | 39.13715 | 32 ft | 115 kts | 340° |
| 2026-05-08 00:53 | 21.68176 | 39.13513 | 28 ft | 43 kts | 339° |
| 2026-05-08 00:53 | 21.68431 | 39.13426 | 28 ft | 37 kts | 352° |
| 2026-05-08 00:53 | 21.68668 | 39.13435 | 28 ft | 31 kts | 8° |
| 2026-05-08 00:53 | 21.68858 | 39.13459 | 29 ft | 23 kts | 351° |
| 2026-05-08 00:54 | 21.68989 | 39.13411 | 29 ft | 17 kts | 338° |
| 2026-05-08 00:54 | 21.69098 | 39.13368 | 29 ft | 16 kts | 340° |
| 2026-05-08 00:54 | 21.69201 | 39.13327 | 29 ft | 15 kts | 340° |
| 2026-05-08 00:54 | 21.69294 | 39.13289 | 29 ft | 13 kts | 338° |
| 2026-05-08 00:55 | 21.69329 | 39.13285 | 29 ft | 4 kts | 7° |
| 2026-05-08 00:55 | 21.69373 | 39.13322 | 29 ft | 13 kts | 56° |
| 2026-05-08 00:55 | 21.69408 | 39.13410 | 29 ft | 12 kts | 69° |
| 2026-05-08 00:55 | 21.69440 | 39.13457 | 30 ft | 4 kts | 22° |
| 2026-05-08 00:56 | 21.69466 | 39.13457 | 30 ft | 4 kts | 356° |
| 2026-05-08 00:56 | 21.69500 | 39.13448 | 30 ft | 7 kts | 341° |
| 2026-05-08 00:56 | 21.69556 | 39.13427 | 30 ft | 9 kts | 340° |
| 2026-05-08 00:56 | 21.69611 | 39.13411 | 30 ft | 3 kts | 9° |
| 2026-05-08 00:57 | 21.69627 | 39.13428 | 30 ft | 6 kts | 45° |
| 2026-05-08 00:57 | 21.69648 | 39.13472 | 30 ft | 7 kts | 66° |
| 2026-05-08 00:57 | 21.69653 | 39.13485 | 30 ft | 0 kts | 66° |